createdAt,value
2023-01-03T00:00:21.946Z,21.10
2023-01-03T00:02:50.933Z,25.33
2023-01-03T00:05:19.295Z,21.97
2023-01-03T00:07:49.068Z,24.30
2023-01-03T00:10:17.462Z,24.70
2023-01-03T00:12:44.868Z,22.50
2023-01-03T00:15:14.574Z,20.17
2023-01-03T00:17:42.941Z,21.83
2023-01-03T00:20:11.654Z,22.00
2023-01-03T00:22:40.037Z,19.93
2023-01-03T00:25:10.455Z,17.30
2023-01-03T00:27:38.784Z,19.37
2023-01-03T00:30:07.862Z,18.77
2023-01-03T00:32:36.182Z,17.77
2023-01-03T00:35:05.498Z,19.50
2023-01-03T00:37:34.082Z,18.47
2023-01-03T00:40:02.455Z,20.50
2023-01-03T00:42:52.325Z,18.80
2023-01-03T00:45:22.535Z,19.50
2023-01-03T00:47:53.719Z,17.70
2023-01-03T00:50:22.063Z,18.20
2023-01-03T00:52:50.410Z,21.43
2023-01-03T00:55:18.726Z,23.50
2023-01-03T00:57:48.473Z,19.73
2023-01-03T01:00:17.254Z,21.00
2023-01-03T01:02:45.657Z,22.00
2023-01-03T01:05:13.994Z,19.87
2023-01-03T01:07:42.320Z,21.77
2023-01-03T01:10:10.923Z,21.97
2023-01-03T01:12:39.222Z,20.10
2023-01-03T01:15:10.080Z,19.10
2023-01-03T01:17:39.027Z,20.97
2023-01-03T01:20:08.461Z,17.77
2023-01-03T01:22:36.843Z,19.20
2023-01-03T01:25:05.425Z,20.77
2023-01-03T01:27:33.774Z,17.87
2023-01-03T01:30:02.025Z,20.40
2023-01-03T01:32:31.939Z,23.00
2023-01-03T01:35:00.213Z,19.30
2023-01-03T01:37:28.514Z,16.80
2023-01-03T01:39:56.756Z,19.77
2023-01-03T01:42:42.654Z,17.67
2023-01-03T01:45:13.946Z,19.13
2023-01-03T01:47:50.037Z,22.07
2023-01-03T01:50:21.748Z,16.27
2023-01-03T01:52:53.110Z,17.93
2023-01-03T01:55:23.434Z,19.27
2023-01-03T01:57:51.753Z,21.73
2023-01-03T02:00:20.136Z,17.67
2023-01-03T02:02:50.779Z,22.10
2023-01-03T02:05:19.992Z,24.63
2023-01-03T02:07:49.914Z,22.87
2023-01-03T02:10:18.534Z,19.40
2023-01-03T02:13:08.612Z,19.33
2023-01-03T02:15:45.746Z,23.83
2023-01-03T02:18:25.818Z,24.53
2023-01-03T02:21:13.593Z,22.90
2023-01-03T02:24:12.751Z,23.37
2023-01-03T02:26:50.044Z,20.63
2023-01-03T02:29:41.078Z,20.00
2023-01-03T02:32:12.799Z,19.23
2023-01-03T02:34:44.312Z,21.77
2023-01-03T02:37:15.417Z,20.10
2023-01-03T02:39:47.747Z,19.70
2023-01-03T02:42:34.844Z,18.00
2023-01-03T02:45:07.954Z,17.37
2023-01-03T02:47:40.870Z,19.47
2023-01-03T02:50:10.917Z,18.23
2023-01-03T02:52:39.245Z,17.70
2023-01-03T02:55:09.881Z,15.93
2023-01-03T02:57:40.026Z,18.67
2023-01-03T03:00:10.314Z,15.53
2023-01-03T03:02:40.408Z,18.27
2023-01-03T03:05:10.387Z,20.93
2023-01-03T03:07:40.930Z,17.97
2023-01-03T03:10:27.751Z,19.37
2023-01-03T03:13:14.686Z,16.43
2023-01-03T03:15:51.372Z,16.83
2023-01-03T03:18:23.087Z,15.50
2023-01-03T03:21:08.587Z,21.00
2023-01-03T03:23:55.347Z,19.37
2023-01-03T03:26:25.452Z,18.03
2023-01-03T03:28:55.863Z,17.23
2023-01-03T03:31:26.639Z,19.20
2023-01-03T03:33:59.235Z,18.23
2023-01-03T03:36:32.023Z,21.27
2023-01-03T03:39:00.839Z,15.17
2023-01-03T03:41:54.849Z,17.77
2023-01-03T03:44:44.770Z,19.47
2023-01-03T03:47:17.507Z,15.57
2023-01-03T03:49:46.553Z,12.10
2023-01-03T03:52:16.673Z,15.20
2023-01-03T03:54:47.042Z,14.50
2023-01-03T03:57:17.602Z,12.80
2023-01-03T03:59:46.711Z,12.77
2023-01-03T04:02:15.121Z,14.40
2023-01-03T04:04:44.449Z,15.60
2023-01-03T04:07:14.137Z,14.73
2023-01-03T04:09:42.383Z,14.17
2023-01-03T04:12:11.178Z,14.00
2023-01-03T04:14:39.417Z,20.37
2023-01-03T04:17:07.794Z,14.30
2023-01-03T04:19:36.042Z,15.43
2023-01-03T04:22:04.348Z,15.40
2023-01-03T04:24:34.073Z,15.50
2023-01-03T04:27:02.335Z,16.63
2023-01-03T04:29:35.474Z,13.63
2023-01-03T04:32:07.786Z,15.30
2023-01-03T04:34:36.156Z,15.97
2023-01-03T04:37:04.455Z,13.60
2023-01-03T04:39:34.077Z,16.60
2023-01-03T04:42:22.668Z,15.13
2023-01-03T04:44:49.903Z,14.77
2023-01-03T04:47:18.145Z,13.23
2023-01-03T04:49:47.079Z,14.33
2023-01-03T04:52:15.378Z,16.87
2023-01-03T04:54:45.065Z,15.80
2023-01-03T04:57:13.373Z,16.73
2023-01-03T04:59:41.649Z,16.70
2023-01-03T05:02:10.174Z,15.90
2023-01-03T05:04:38.601Z,15.03
2023-01-03T05:07:06.940Z,17.47
2023-01-03T05:09:35.191Z,13.57
2023-01-03T05:12:05.281Z,17.47
2023-01-03T05:14:33.496Z,18.13
2023-01-03T05:17:01.913Z,20.37
2023-01-03T05:19:30.249Z,19.83
2023-01-03T05:22:15.304Z,18.07
2023-01-03T05:25:06.153Z,19.80
2023-01-03T05:27:35.796Z,19.07
2023-01-03T05:30:04.092Z,21.60
2023-01-03T05:32:32.329Z,21.17
2023-01-03T05:35:00.673Z,22.90
2023-01-03T05:37:28.981Z,21.03
2023-01-03T05:39:57.209Z,19.57
2023-01-03T05:42:25.560Z,20.40
2023-01-03T05:44:55.191Z,20.10
2023-01-03T05:47:23.555Z,21.20
2023-01-03T05:49:51.806Z,24.23
2023-01-03T05:52:20.136Z,25.67
2023-01-03T05:54:48.390Z,26.97
2023-01-03T05:57:16.675Z,29.67
2023-01-03T05:59:44.930Z,30.73
2023-01-03T06:02:14.717Z,29.17
2023-01-03T06:04:43.138Z,32.00
2023-01-03T06:07:11.466Z,30.07
2023-01-03T06:09:39.720Z,34.93
2023-01-03T06:12:08.224Z,29.70
2023-01-03T06:14:36.478Z,33.00
2023-01-03T06:17:22.318Z,29.67
2023-01-03T06:19:51.970Z,31.00
2023-01-03T06:22:20.234Z,29.23
2023-01-03T06:24:48.488Z,33.20
2023-01-03T06:27:16.740Z,25.73
2023-01-03T06:29:45.018Z,32.93
2023-01-03T06:32:13.361Z,27.17
2023-01-03T06:34:41.640Z,26.23
2023-01-03T06:37:11.305Z,25.87
2023-01-03T06:39:39.564Z,26.83
2023-01-03T06:42:21.692Z,25.53
2023-01-03T06:45:10.512Z,22.03
2023-01-03T06:47:55.903Z,22.10
2023-01-03T06:50:41.712Z,21.33
2023-01-03T06:53:13.862Z,23.37
2023-01-03T06:55:42.150Z,18.70
2023-01-03T06:58:10.425Z,21.63
2023-01-03T07:00:39.012Z,21.53
2023-01-03T07:03:11.146Z,18.13
2023-01-03T07:05:40.101Z,23.67
2023-01-03T07:08:11.086Z,21.10
2023-01-03T07:10:39.315Z,23.93
2023-01-03T07:13:24.786Z,21.87
2023-01-03T07:15:53.078Z,24.50
2023-01-03T07:18:21.469Z,20.17
2023-01-03T07:20:49.818Z,20.77
2023-01-03T07:23:19.430Z,21.77
2023-01-03T07:25:47.781Z,22.70
2023-01-03T07:28:16.369Z,21.87
2023-01-03T07:30:45.920Z,24.00
2023-01-03T07:33:15.442Z,25.63
2023-01-03T07:35:43.760Z,19.80
2023-01-03T07:38:12.700Z,21.23
2023-01-03T07:40:42.386Z,24.03
2023-01-03T07:43:28.648Z,21.70
2023-01-03T07:45:56.925Z,20.67
2023-01-03T07:48:25.248Z,19.90
2023-01-03T07:50:58.168Z,19.17
2023-01-03T07:53:26.548Z,18.30
2023-01-03T07:55:56.246Z,20.43
2023-01-03T07:58:24.507Z,19.20
2023-01-03T08:00:52.769Z,20.40
2023-01-03T08:03:21.030Z,21.27
2023-01-03T08:05:51.173Z,18.93
2023-01-03T08:08:19.475Z,20.30
2023-01-03T08:11:05.274Z,19.47
2023-01-03T08:13:35.011Z,22.60
2023-01-03T08:16:03.364Z,21.77
2023-01-03T08:18:31.717Z,22.33
2023-01-03T08:20:59.948Z,23.30
2023-01-03T08:23:28.194Z,23.57
2023-01-03T08:26:01.139Z,18.07
2023-01-03T08:28:29.624Z,17.97
2023-01-03T08:30:59.354Z,16.63
2023-01-03T08:33:27.984Z,19.93
2023-01-03T08:35:58.772Z,20.50
2023-01-03T08:38:28.355Z,19.50
2023-01-03T08:40:56.624Z,20.13
2023-01-03T08:43:24.917Z,20.53
2023-01-03T08:45:53.146Z,18.23
2023-01-03T08:48:22.796Z,17.37
2023-01-03T08:50:51.038Z,21.07
2023-01-03T08:53:19.391Z,18.00
2023-01-03T08:55:47.632Z,17.20
2023-01-03T08:58:15.921Z,18.30
2023-01-03T09:00:44.218Z,18.93
2023-01-03T09:03:12.688Z,19.60
2023-01-03T09:05:42.513Z,19.20
2023-01-03T09:08:10.775Z,18.53
2023-01-03T09:10:47.190Z,16.37
2023-01-03T09:13:16.039Z,17.07
2023-01-03T09:15:44.328Z,13.53
2023-01-03T09:18:12.855Z,11.43
2023-01-03T09:20:42.512Z,10.90
2023-01-03T09:23:10.787Z,12.23
2023-01-03T09:25:39.055Z,10.97
2023-01-03T09:28:07.295Z,11.00
2023-01-03T09:30:35.516Z,10.53
2023-01-03T09:33:04.960Z,10.67
2023-01-03T09:35:34.173Z,8.43
2023-01-03T09:38:03.826Z,9.07
2023-01-03T09:40:32.161Z,7.83
2023-01-03T09:43:19.788Z,9.00
2023-01-03T09:45:51.865Z,8.27
2023-01-03T09:48:21.394Z,6.83
2023-01-03T09:51:17.126Z,7.90
2023-01-03T09:53:57.251Z,7.87
2023-01-03T09:56:42.731Z,8.20
2023-01-03T09:59:30.254Z,7.67
2023-01-03T10:02:20.773Z,9.87
2023-01-03T10:05:19.534Z,9.63
2023-01-03T10:08:07.005Z,9.70
2023-01-03T10:10:40.313Z,7.67
2023-01-03T10:13:19.507Z,7.83
2023-01-03T10:15:52.822Z,9.33
2023-01-03T10:18:31.752Z,11.00
2023-01-03T10:21:02.951Z,7.80
2023-01-03T10:23:31.375Z,7.70
2023-01-03T10:26:01.018Z,12.37
2023-01-03T10:28:38.383Z,9.57
2023-01-03T10:31:24.087Z,10.50
2023-01-03T10:33:52.436Z,10.57
2023-01-03T10:36:22.005Z,11.93
2023-01-03T10:38:53.184Z,11.70
2023-01-03T10:41:31.209Z,9.97
2023-01-03T10:43:59.948Z,12.63
2023-01-03T10:46:30.023Z,11.00
2023-01-03T10:49:29.738Z,12.30
2023-01-03T10:52:01.092Z,15.07
2023-01-03T10:54:32.650Z,12.70
2023-01-03T10:57:02.523Z,13.30
2023-01-03T10:59:31.504Z,14.60
2023-01-03T11:02:03.863Z,15.23
2023-01-03T11:04:32.813Z,16.30
2023-01-03T11:07:06.299Z,13.97
2023-01-03T11:09:36.519Z,12.27
2023-01-03T11:12:10.756Z,8.37
2023-01-03T11:14:39.035Z,7.80
2023-01-03T11:17:07.507Z,8.20
2023-01-03T11:19:35.911Z,8.60
2023-01-03T11:22:10.788Z,6.73
2023-01-03T11:25:10.017Z,6.03
2023-01-03T11:27:58.476Z,5.90
2023-01-03T11:30:29.566Z,6.60
2023-01-03T11:33:04.886Z,6.13
2023-01-03T11:35:41.508Z,7.23
2023-01-03T11:38:18.827Z,7.87
2023-01-03T11:40:49.758Z,5.57
2023-01-03T11:43:26.861Z,4.93
2023-01-03T11:46:14.119Z,5.07
2023-01-03T11:48:54.502Z,5.53
2023-01-03T11:51:26.724Z,5.30
2023-01-03T11:54:03.156Z,3.27
2023-01-03T11:56:32.330Z,4.97
2023-01-03T11:59:38.171Z,5.80
2023-01-03T12:02:32.008Z,4.53
2023-01-03T12:05:07.406Z,4.53
2023-01-03T12:07:48.538Z,4.83
2023-01-03T12:10:18.450Z,4.93
2023-01-03T12:13:04.670Z,4.40
2023-01-03T12:15:40.755Z,4.63
2023-01-03T12:18:11.879Z,6.73
2023-01-03T12:20:42.011Z,6.30
2023-01-03T12:23:15.908Z,6.77
2023-01-03T12:25:44.685Z,6.10
2023-01-03T12:28:14.505Z,6.87
2023-01-03T12:30:45.885Z,7.00
2023-01-03T12:33:26.091Z,6.13
2023-01-03T12:35:58.051Z,5.83
2023-01-03T12:38:28.839Z,5.90
2023-01-03T12:40:58.217Z,6.83
2023-01-03T12:43:29.903Z,6.70
2023-01-03T12:46:05.630Z,11.60
2023-01-03T12:48:56.123Z,5.17
2023-01-03T12:51:25.691Z,6.37
2023-01-03T12:54:02.048Z,7.47
2023-01-03T12:56:44.917Z,6.90
2023-01-03T12:59:23.938Z,7.67
2023-01-03T13:01:56.590Z,6.37
2023-01-03T13:04:26.975Z,5.20
2023-01-03T13:07:07.231Z,6.53
2023-01-03T13:09:37.050Z,5.37
2023-01-03T13:12:08.638Z,4.23
2023-01-03T13:14:52.554Z,7.07
2023-01-03T13:17:23.057Z,9.87
2023-01-03T13:20:00.799Z,4.90
2023-01-03T13:22:50.278Z,6.90
2023-01-03T13:25:45.561Z,5.77
2023-01-03T13:28:37.642Z,6.47
2023-01-03T13:31:48.174Z,6.50
2023-01-03T13:34:34.370Z,6.40
2023-01-03T13:37:18.317Z,6.63
2023-01-03T13:40:15.542Z,6.27
2023-01-03T13:42:46.808Z,7.50
2023-01-03T13:45:57.659Z,4.47
2023-01-03T13:48:33.032Z,5.10
2023-01-03T13:51:33.938Z,4.57
2023-01-03T13:54:05.907Z,6.50
2023-01-03T13:56:56.431Z,7.43
2023-01-03T13:59:33.306Z,5.00
2023-01-03T14:02:26.908Z,6.80
2023-01-03T14:05:12.022Z,5.43
2023-01-03T14:08:19.636Z,4.53
2023-01-03T14:11:01.009Z,4.70
2023-01-03T14:13:47.181Z,6.93
2023-01-03T14:16:25.913Z,5.93
2023-01-03T14:19:03.048Z,5.30
2023-01-03T14:21:41.035Z,6.20
2023-01-03T14:24:14.545Z,4.97
2023-01-03T14:26:44.217Z,5.40
2023-01-03T14:29:16.305Z,4.87
2023-01-03T14:31:46.871Z,7.97
2023-01-03T14:34:29.166Z,7.80
2023-01-03T14:37:05.259Z,5.83
2023-01-03T14:42:03.837Z,9.23
2023-01-03T14:44:32.163Z,10.37
2023-01-03T14:47:01.283Z,9.80
2023-01-03T14:49:35.623Z,7.53
2023-01-03T14:52:07.050Z,10.17
2023-01-03T14:54:35.377Z,10.27
2023-01-03T14:57:06.027Z,11.80
2023-01-03T14:59:34.980Z,9.40
2023-01-03T15:02:03.494Z,12.23
2023-01-03T15:04:31.967Z,10.73
2023-01-03T15:07:08.019Z,12.87
2023-01-03T15:09:41.206Z,14.20
2023-01-03T15:12:13.787Z,11.03
2023-01-03T15:14:42.000Z,11.03
2023-01-03T15:17:14.880Z,11.10
2023-01-03T15:19:49.020Z,17.43
2023-01-03T15:22:19.175Z,15.83
2023-01-03T15:24:48.079Z,13.80
2023-01-03T15:27:50.940Z,11.83
2023-01-03T15:30:23.217Z,17.07
2023-01-03T15:33:02.059Z,15.00
2023-01-03T15:35:33.706Z,18.03
2023-01-03T15:38:02.465Z,15.50
2023-01-03T15:40:31.325Z,18.23
2023-01-03T15:43:23.638Z,21.73
2023-01-03T15:46:03.287Z,20.80
2023-01-03T15:48:35.202Z,24.50
2023-01-03T15:51:03.864Z,30.43
2023-01-03T15:53:37.826Z,28.70
2023-01-03T15:56:13.492Z,25.27
2023-01-03T15:58:43.163Z,25.20
2023-01-03T16:01:11.628Z,25.47
2023-01-03T16:03:40.042Z,33.10
2023-01-03T16:06:08.420Z,29.93
2023-01-03T16:08:37.714Z,25.10
2023-01-03T16:11:06.786Z,27.07
2023-01-03T16:13:38.513Z,28.13
2023-01-03T16:16:08.959Z,28.67
2023-01-03T16:18:38.017Z,27.70
2023-01-03T16:21:06.839Z,27.43
2023-01-03T16:23:35.677Z,29.87
2023-01-03T16:26:03.941Z,30.60
2023-01-03T16:28:32.307Z,33.90
2023-01-03T16:31:02.786Z,31.00
2023-01-03T16:33:36.308Z,26.77
2023-01-03T16:36:04.842Z,31.50
2023-01-03T16:38:33.774Z,31.57
2023-01-03T16:41:02.104Z,29.57
2023-01-03T16:43:30.480Z,26.90
2023-01-03T16:45:59.940Z,26.60
2023-01-03T16:48:29.947Z,33.20
2023-01-03T16:50:59.642Z,26.07
2023-01-03T16:53:32.601Z,31.40
2023-01-03T16:56:00.947Z,23.77
2023-01-03T16:58:29.217Z,29.03
2023-01-03T17:00:57.616Z,21.83
2023-01-03T17:03:26.088Z,26.10
2023-01-03T17:05:54.553Z,24.23
2023-01-03T17:08:25.394Z,29.77
2023-01-03T17:10:54.476Z,24.73
2023-01-03T17:13:31.193Z,28.37
2023-01-03T17:15:59.593Z,32.53
2023-01-03T17:18:28.964Z,30.33
2023-01-03T17:20:59.259Z,30.43
2023-01-03T17:23:29.007Z,39.53
2023-01-03T17:25:57.377Z,36.33
2023-01-03T17:28:25.733Z,35.03
2023-01-03T17:30:56.781Z,36.60
2023-01-03T17:33:31.971Z,35.57
2023-01-03T17:36:02.203Z,40.17
2023-01-03T17:38:32.017Z,43.33
2023-01-03T17:41:00.282Z,38.60
2023-01-03T17:43:28.884Z,37.03
2023-01-03T17:46:22.673Z,38.00
2023-01-03T17:49:09.315Z,35.70
2023-01-03T17:51:37.628Z,37.07
2023-01-03T17:54:07.421Z,39.43
2023-01-03T17:56:37.393Z,38.87
2023-01-03T17:59:06.005Z,38.53
2023-01-03T18:01:35.320Z,39.23
2023-01-03T18:04:03.806Z,44.23
2023-01-03T18:06:32.365Z,39.40
2023-01-03T18:09:00.654Z,39.43
2023-01-03T18:11:30.351Z,36.30
2023-01-03T18:13:58.716Z,41.40
2023-01-03T18:16:27.279Z,38.67
2023-01-03T18:18:55.740Z,40.57
2023-01-03T18:21:24.915Z,35.07
2023-01-03T18:23:55.551Z,44.67
2023-01-03T18:26:23.964Z,46.87
2023-01-03T18:28:53.637Z,48.67
2023-01-03T18:31:21.952Z,53.97
2023-01-03T18:33:50.371Z,50.73
2023-01-03T18:36:28.560Z,47.80
2023-01-03T18:39:01.093Z,46.30
2023-01-03T18:41:30.834Z,52.80
2023-01-03T18:44:00.606Z,49.23
2023-01-03T18:46:29.498Z,50.93
2023-01-03T18:48:57.981Z,51.13
2023-01-03T18:51:28.316Z,54.30
2023-01-03T18:53:58.521Z,45.80
2023-01-03T18:56:31.578Z,45.37
2023-01-03T18:59:02.680Z,42.17
2023-01-03T19:01:31.634Z,49.97
2023-01-03T19:04:00.378Z,46.43
2023-01-03T19:06:30.680Z,44.57
2023-01-03T19:09:02.307Z,53.23
2023-01-03T19:11:31.685Z,43.27
2023-01-03T19:14:03.157Z,48.63
2023-01-03T19:16:32.486Z,44.30
2023-01-03T19:19:00.799Z,47.03
2023-01-03T19:21:31.907Z,44.60
2023-01-03T19:24:02.893Z,48.40
2023-01-03T19:26:33.401Z,38.17
2023-01-03T19:29:03.937Z,41.20
2023-01-03T19:31:37.488Z,39.03
2023-01-03T19:34:07.099Z,34.60
2023-01-03T19:36:35.412Z,38.23
2023-01-03T19:39:04.638Z,41.53
2023-01-03T19:41:52.905Z,38.10
2023-01-03T19:44:22.598Z,43.00
2023-01-03T19:46:51.023Z,36.00
2023-01-03T19:49:19.402Z,46.17
2023-01-03T19:51:47.692Z,46.57
2023-01-03T19:54:16.018Z,45.27
2023-01-03T19:56:44.317Z,53.37
2023-01-03T19:59:20.508Z,69.70
2023-01-03T20:02:23.519Z,53.87
2023-01-03T20:04:38.620Z,60.47
2023-01-03T20:07:09.592Z,60.80
2023-01-03T20:09:37.816Z,59.57
2023-01-03T20:12:06.440Z,57.97
2023-01-03T20:14:34.749Z,58.00
2023-01-03T20:17:04.507Z,59.10
2023-01-03T20:19:32.782Z,59.30
2023-01-03T20:22:01.135Z,58.17
2023-01-03T20:24:30.896Z,68.97
2023-01-03T20:26:59.265Z,59.93
2023-01-03T20:29:27.774Z,64.83
2023-01-03T20:31:57.206Z,61.67
2023-01-03T20:34:27.002Z,63.37
2023-01-03T20:36:55.949Z,64.67
2023-01-03T20:39:25.621Z,61.07
2023-01-03T20:41:57.305Z,60.03
2023-01-03T20:44:28.212Z,61.67
2023-01-03T20:46:56.816Z,59.90
2023-01-03T20:49:27.527Z,67.87
2023-01-03T20:51:56.122Z,65.33
2023-01-03T20:54:24.527Z,64.30
2023-01-03T20:56:52.994Z,65.80
2023-01-03T20:59:24.414Z,60.60
2023-01-03T21:01:52.874Z,59.33
2023-01-03T21:04:21.604Z,60.77
2023-01-03T21:06:52.867Z,66.30
2023-01-03T21:09:20.159Z,65.57
2023-01-03T21:11:48.436Z,64.87
2023-01-03T21:14:16.821Z,72.37
2023-01-03T21:16:46.595Z,68.67
2023-01-03T21:19:16.062Z,70.80
2023-01-03T21:21:45.263Z,68.33
2023-01-03T21:24:15.981Z,68.50
2023-01-03T21:26:44.318Z,67.07
2023-01-03T21:29:12.692Z,65.50
2023-01-03T21:31:42.326Z,62.40
2023-01-03T21:34:16.858Z,67.93
2023-01-03T21:36:45.235Z,65.90
2023-01-03T21:39:15.039Z,67.13
2023-01-03T21:41:57.262Z,65.37
2023-01-03T21:44:25.569Z,64.80
2023-01-03T21:46:54.363Z,69.13
2023-01-03T21:49:22.887Z,68.60
2023-01-03T21:51:51.488Z,68.50
2023-01-03T21:54:21.476Z,65.97
2023-01-03T21:56:50.244Z,68.10
2023-01-03T21:59:18.773Z,69.00
2023-01-03T22:02:04.793Z,72.37
2023-01-03T22:04:33.560Z,71.10
2023-01-03T22:07:02.565Z,70.33
2023-01-03T22:09:50.308Z,67.40
2023-01-03T22:12:19.109Z,70.57
2023-01-03T22:14:47.605Z,75.80
2023-01-03T22:17:16.051Z,72.43
2023-01-03T22:19:44.392Z,76.07
2023-01-03T22:22:12.803Z,70.97
2023-01-03T22:24:42.489Z,80.27
2023-01-03T22:27:10.797Z,80.53
2023-01-03T22:29:39.106Z,78.57
2023-01-03T22:32:07.501Z,75.73
2023-01-03T22:34:35.815Z,80.93
2023-01-03T22:37:04.069Z,83.53
2023-01-03T22:39:32.366Z,81.43
2023-01-03T22:42:02.060Z,91.60
2023-01-03T22:44:30.424Z,87.97
2023-01-03T22:46:58.803Z,92.93
2023-01-03T22:49:27.716Z,91.37
2023-01-03T22:51:56.068Z,90.27
2023-01-03T22:54:24.311Z,95.50
2023-01-03T22:56:52.696Z,95.90
2023-01-03T22:59:22.357Z,97.07
2023-01-03T23:01:51.422Z,94.93
2023-01-03T23:04:19.949Z,94.70
2023-01-03T23:06:48.374Z,97.60
2023-01-03T23:09:16.702Z,98.00
2023-01-03T23:12:03.156Z,94.53
2023-01-03T23:14:33.046Z,99.90
2023-01-03T23:17:22.274Z,92.37
2023-01-03T23:19:50.619Z,93.63
2023-01-03T23:22:18.942Z,94.93
2023-01-03T23:24:47.582Z,90.60
2023-01-03T23:27:15.883Z,93.43
2023-01-03T23:29:45.696Z,97.80
2023-01-03T23:32:13.957Z,93.63
2023-01-03T23:34:42.277Z,92.90
2023-01-03T23:37:10.834Z,88.13
2023-01-03T23:39:39.127Z,88.10
2023-01-03T23:42:07.508Z,87.57
2023-01-03T23:44:35.754Z,88.70
2023-01-03T23:47:11.377Z,87.00
2023-01-03T23:49:41.163Z,89.30
2023-01-03T23:52:09.630Z,89.17
2023-01-03T23:54:37.932Z,89.40
2023-01-03T23:57:06.410Z,88.37
2023-01-03T23:59:34.693Z,82.90
